Aeroporto :
LOGIN :

Iscrizione | Disclaimer

   EN    FR    IT 

 










Sommario :    VFR   VFR Marginale   IFR   IFR Intensivo   IFR Molto Intensivo
Visibilità : 
Base nubi : 
>= 8 km
>= 3000ft
5 / 8 km
1000 / 3000 ft
1500m / 5 km
500 / 1000 ft
800 / 1500m
200 / 500 ft
< 800m
< 200 ft
Simboli :   Temporali  Nebbia  Neve Forte  Precipitazioni Forti  Vento > 20 kt
SIGMETs :   Varie  Temporali  Ghiacco  Turbolenza  Onda orograficha  Ceneri Vulcaniche






- Altitudine del aeroporto : 124 ft
- Codice IATA : RNS


LFRN - Rennes

ULTIMO METAR :
  • 171700Z AUTO 31004KT 280V360 3100 BR OVC003 05/05 Q1011 BECMG 2000 BR BKN005

METARs OBSOLETI :
  • 171630Z AUTO 27002KT 3400 BR OVC004 05/05 Q1010 BECMG 2000 BR BKN005
  • 171600Z AUTO 27004KT 4800 BR SCT005 SCT043 BKN170 06/05 Q1010 BECMG 2000 BR BKN005
  • 171530Z AUTO 31004KT 6000 FEW006 OVC045 06/05 Q1010 BECMG 2000 BR BKN005
  • 171500Z AUTO VRB03KT 5000 BR SCT006 OVC047 06/06 Q1010 BECMG BKN005
  • 171430Z AUTO VRB03KT 6000 BKN005 OVC047 06/06 Q1010 NOSIG

TAF TAF LFRN
Valido dal 17 a 12 ore il 18 a 12 ore UTC


171100Z 1712/1812 VRB03KT 2000 BR BKN005
TEMPO 1712/1714 0800 FG VV///
TEMPO 1713/1717 9999 NSW SCT030
PROB40
TEMPO 1722/1806 0200 FG VV///
ATIS : +33 2 99 67 72 50



MetMap, La meteo Aeronautica in un colpo d'occhio ! - Copyright ORBIFLY Dicembre 2007 - Disclaimer

ORBIFLY MET'MAP TEAM :

Programmazione e sviluppo : Alexandra Zaïnal
Concezione e sviluppo : Baudouin d'Aumeries
Co-Programmazione e sviluppo : Marc-Olivier Méhu
Supporto tecnico e logistico : Manuel Goepfert
Aiuto per la traduzione : Arnaldo La Scala

Contatto : metmap@orbifly.com




FONTI E CREDITI :

   NOAA